sensor_id;sensor_type;location;lat;lon;timestamp;P1;durP1;ratioP1;P2;durP2;ratioP2
71973;SDS011;59840;52.122;5.404;2023-04-25T00:00:00;10.30;;;1.67;;
71973;SDS011;59840;52.122;5.404;2023-04-25T00:02:27;4.63;;;1.00;;
71973;SDS011;59840;52.122;5.404;2023-04-25T00:04:54;9.35;;;1.67;;
71973;SDS011;59840;52.122;5.404;2023-04-25T00:07:25;6.23;;;1.27;;
71973;SDS011;59840;52.122;5.404;2023-04-25T00:09:54;7.35;;;1.23;;
71973;SDS011;59840;52.122;5.404;2023-04-25T00:12:21;5.55;;;1.45;;
71973;SDS011;59840;52.122;5.404;2023-04-25T00:14:48;7.63;;;1.42;;
71973;SDS011;59840;52.122;5.404;2023-04-25T00:17:19;6.55;;;1.30;;
71973;SDS011;59840;52.122;5.404;2023-04-25T00:19:45;10.57;;;1.10;;
71973;SDS011;59840;52.122;5.404;2023-04-25T00:22:12;7.93;;;1.27;;
71973;SDS011;59840;52.122;5.404;2023-04-25T00:24:39;9.32;;;1.25;;
71973;SDS011;59840;52.122;5.404;2023-04-25T00:27:06;8.63;;;1.80;;
71973;SDS011;59840;52.122;5.404;2023-04-25T00:29:33;8.13;;;2.05;;
71973;SDS011;59840;52.122;5.404;2023-04-25T00:32:00;6.70;;;1.57;;
71973;SDS011;59840;52.122;5.404;2023-04-25T00:34:29;5.47;;;1.20;;
71973;SDS011;59840;52.122;5.404;2023-04-25T00:36:56;5.57;;;1.80;;
71973;SDS011;59840;52.122;5.404;2023-04-25T00:39:24;4.95;;;1.30;;
71973;SDS011;59840;52.122;5.404;2023-04-25T00:41:50;5.50;;;1.33;;
71973;SDS011;59840;52.122;5.404;2023-04-25T00:44:19;9.60;;;1.37;;
71973;SDS011;59840;52.122;5.404;2023-04-25T00:46:49;5.97;;;1.45;;
71973;SDS011;59840;52.122;5.404;2023-04-25T00:49:16;10.10;;;1.30;;
71973;SDS011;59840;52.122;5.404;2023-04-25T00:51:43;13.77;;;1.73;;
71973;SDS011;59840;52.122;5.404;2023-04-25T00:54:12;4.53;;;1.20;;
71973;SDS011;59840;52.122;5.404;2023-04-25T00:56:42;9.60;;;1.63;;
71973;SDS011;59840;52.122;5.404;2023-04-25T00:59:09;6.85;;;1.50;;
71973;SDS011;59840;52.122;5.404;2023-04-25T01:01:36;7.22;;;1.10;;
71973;SDS011;59840;52.122;5.404;2023-04-25T01:04:04;7.80;;;1.75;;
71973;SDS011;59840;52.122;5.404;2023-04-25T01:06:31;5.72;;;1.40;;
71973;SDS011;59840;52.122;5.404;2023-04-25T01:08:59;6.77;;;1.57;;
71973;SDS011;59840;52.122;5.404;2023-04-25T01:11:26;8.25;;;1.35;;
71973;SDS011;59840;52.122;5.404;2023-04-25T01:13:52;3.72;;;1.45;;
71973;SDS011;59840;52.122;5.404;2023-04-25T01:16:19;7.45;;;1.58;;
71973;SDS011;59840;52.122;5.404;2023-04-25T01:18:50;12.45;;;1.77;;
71973;SDS011;59840;52.122;5.404;2023-04-25T01:21:17;13.43;;;1.70;;
71973;SDS011;59840;52.122;5.404;2023-04-25T01:23:44;5.47;;;1.25;;
71973;SDS011;59840;52.122;5.404;2023-04-25T01:26:11;9.57;;;1.58;;
71973;SDS011;59840;52.122;5.404;2023-04-25T01:28:39;6.90;;;1.20;;
71973;SDS011;59840;52.122;5.404;2023-04-25T01:31:09;9.63;;;1.33;;
71973;SDS011;59840;52.122;5.404;2023-04-25T01:33:37;10.37;;;1.90;;
71973;SDS011;59840;52.122;5.404;2023-04-25T01:36:04;8.02;;;1.30;;
71973;SDS011;59840;52.122;5.404;2023-04-25T01:38:31;5.05;;;1.20;;
71973;SDS011;59840;52.122;5.404;2023-04-25T01:40:58;5.82;;;1.08;;
71973;SDS011;59840;52.122;5.404;2023-04-25T01:43:25;5.78;;;1.35;;
71973;SDS011;59840;52.122;5.404;2023-04-25T01:45:52;10.33;;;1.80;;
71973;SDS011;59840;52.122;5.404;2023-04-25T01:48:19;6.05;;;1.20;;
71973;SDS011;59840;52.122;5.404;2023-04-25T01:50:46;7.82;;;1.33;;
71973;SDS011;59840;52.122;5.404;2023-04-25T01:53:17;6.30;;;1.40;;
71973;SDS011;59840;52.122;5.404;2023-04-25T01:55:44;4.55;;;1.10;;
71973;SDS011;59840;52.122;5.404;2023-04-25T01:58:11;9.93;;;1.30;;
71973;SDS011;59840;52.122;5.404;2023-04-25T02:00:39;8.32;;;1.27;;
71973;SDS011;59840;52.122;5.404;2023-04-25T02:03:07;6.28;;;0.85;;
71973;SDS011;59840;52.122;5.404;2023-04-25T02:05:35;3.42;;;0.95;;
71973;SDS011;59840;52.122;5.404;2023-04-25T02:08:04;8.15;;;1.73;;
71973;SDS011;59840;52.122;5.404;2023-04-25T02:10:34;5.07;;;1.17;;
71973;SDS011;59840;52.122;5.404;2023-04-25T02:13:02;8.93;;;1.23;;
71973;SDS011;59840;52.122;5.404;2023-04-25T02:15:33;6.15;;;1.20;;
71973;SDS011;59840;52.122;5.404;2023-04-25T02:17:59;9.68;;;1.02;;
71973;SDS011;59840;52.122;5.404;2023-04-25T02:20:27;12.70;;;2.45;;
71973;SDS011;59840;52.122;5.404;2023-04-25T02:22:54;7.17;;;1.33;;
71973;SDS011;59840;52.122;5.404;2023-04-25T02:25:22;7.90;;;1.55;;
71973;SDS011;59840;52.122;5.404;2023-04-25T02:27:49;4.97;;;1.38;;
71973;SDS011;59840;52.122;5.404;2023-04-25T02:30:20;9.23;;;1.10;;
71973;SDS011;59840;52.122;5.404;2023-04-25T02:32:47;7.45;;;1.30;;
71973;SDS011;59840;52.122;5.404;2023-04-25T02:35:13;4.93;;;1.10;;
71973;SDS011;59840;52.122;5.404;2023-04-25T02:37:40;7.72;;;1.30;;
71973;SDS011;59840;52.122;5.404;2023-04-25T02:40:07;3.03;;;0.80;;
71973;SDS011;59840;52.122;5.404;2023-04-25T02:42:34;8.57;;;1.10;;
71973;SDS011;59840;52.122;5.404;2023-04-25T02:45:00;5.97;;;0.88;;
71973;SDS011;59840;52.122;5.404;2023-04-25T02:47:27;10.30;;;1.33;;
71973;SDS011;59840;52.122;5.404;2023-04-25T02:49:55;8.77;;;1.00;;
71973;SDS011;59840;52.122;5.404;2023-04-25T02:52:21;4.82;;;1.40;;
71973;SDS011;59840;52.122;5.404;2023-04-25T02:54:48;6.95;;;1.55;;
71973;SDS011;59840;52.122;5.404;2023-04-25T02:57:14;5.68;;;1.45;;
71973;SDS011;59840;52.122;5.404;2023-04-25T02:59:41;8.17;;;1.63;;
71973;SDS011;59840;52.122;5.404;2023-04-25T03:02:08;8.10;;;1.35;;
71973;SDS011;59840;52.122;5.404;2023-04-25T03:04:36;4.88;;;1.08;;
71973;SDS011;59840;52.122;5.404;2023-04-25T03:07:03;7.20;;;1.40;;
71973;SDS011;59840;52.122;5.404;2023-04-25T03:09:30;7.18;;;1.40;;
71973;SDS011;59840;52.122;5.404;2023-04-25T03:11:57;9.77;;;1.10;;
71973;SDS011;59840;52.122;5.404;2023-04-25T03:14:23;5.60;;;1.00;;
71973;SDS011;59840;52.122;5.404;2023-04-25T03:16:50;5.32;;;1.30;;
71973;SDS011;59840;52.122;5.404;2023-04-25T03:19:16;6.25;;;0.80;;
71973;SDS011;59840;52.122;5.404;2023-04-25T03:21:43;8.27;;;1.27;;
71973;SDS011;59840;52.122;5.404;2023-04-25T03:24:10;6.83;;;1.10;;
71973;SDS011;59840;52.122;5.404;2023-04-25T03:26:38;6.20;;;1.10;;
71973;SDS011;59840;52.122;5.404;2023-04-25T03:29:04;4.30;;;1.27;;
71973;SDS011;59840;52.122;5.404;2023-04-25T03:31:31;7.13;;;1.33;;
71973;SDS011;59840;52.122;5.404;2023-04-25T03:33:57;7.47;;;1.30;;
71973;SDS011;59840;52.122;5.404;2023-04-25T03:36:24;9.07;;;1.20;;
71973;SDS011;59840;52.122;5.404;2023-04-25T03:38:51;13.93;;;1.52;;
71973;SDS011;59840;52.122;5.404;2023-04-25T03:41:17;5.88;;;1.20;;
71973;SDS011;59840;52.122;5.404;2023-04-25T03:43:44;12.82;;;1.40;;
71973;SDS011;59840;52.122;5.404;2023-04-25T03:46:11;7.30;;;1.67;;
71973;SDS011;59840;52.122;5.404;2023-04-25T03:48:37;7.97;;;1.07;;
71973;SDS011;59840;52.122;5.404;2023-04-25T03:51:04;5.00;;;0.85;;
71973;SDS011;59840;52.122;5.404;2023-04-25T03:53:30;7.25;;;1.23;;
71973;SDS011;59840;52.122;5.404;2023-04-25T03:55:57;9.88;;;0.98;;
71973;SDS011;59840;52.122;5.404;2023-04-25T03:58:24;9.32;;;1.50;;
71973;SDS011;59840;52.122;5.404;2023-04-25T04:00:50;5.27;;;0.80;;
71973;SDS011;59840;52.122;5.404;2023-04-25T04:03:17;8.15;;;1.17;;
71973;SDS011;59840;52.122;5.404;2023-04-25T04:05:44;5.30;;;1.05;;
71973;SDS011;59840;52.122;5.404;2023-04-25T04:08:11;6.93;;;1.10;;
71973;SDS011;59840;52.122;5.404;2023-04-25T04:10:38;2.30;;;0.75;;
71973;SDS011;59840;52.122;5.404;2023-04-25T04:13:04;7.07;;;1.30;;
71973;SDS011;59840;52.122;5.404;2023-04-25T04:15:31;5.97;;;1.00;;
71973;SDS011;59840;52.122;5.404;2023-04-25T04:17:59;9.00;;;1.27;;
71973;SDS011;59840;52.122;5.404;2023-04-25T04:20:29;6.40;;;1.00;;
71973;SDS011;59840;52.122;5.404;2023-04-25T04:22:58;3.53;;;0.70;;
71973;SDS011;59840;52.122;5.404;2023-04-25T04:25:25;7.10;;;1.50;;
71973;SDS011;59840;52.122;5.404;2023-04-25T04:27:52;5.18;;;0.85;;
71973;SDS011;59840;52.122;5.404;2023-04-25T04:30:24;8.15;;;1.00;;
71973;SDS011;59840;52.122;5.404;2023-04-25T04:32:51;6.53;;;1.02;;
71973;SDS011;59840;52.122;5.404;2023-04-25T04:35:18;6.95;;;0.70;;
71973;SDS011;59840;52.122;5.404;2023-04-25T04:37:45;5.10;;;0.50;;
71973;SDS011;59840;52.122;5.404;2023-04-25T04:40:12;6.10;;;0.88;;
71973;SDS011;59840;52.122;5.404;2023-04-25T04:42:42;4.97;;;0.50;;
71973;SDS011;59840;52.122;5.404;2023-04-25T04:45:09;6.80;;;0.77;;
71973;SDS011;59840;52.122;5.404;2023-04-25T04:47:36;4.95;;;0.70;;
71973;SDS011;59840;52.122;5.404;2023-04-25T04:50:07;4.83;;;0.40;;
71973;SDS011;59840;52.122;5.404;2023-04-25T04:52:36;8.50;;;0.98;;
71973;SDS011;59840;52.122;5.404;2023-04-25T04:55:03;4.97;;;0.55;;
71973;SDS011;59840;52.122;5.404;2023-04-25T04:57:31;10.95;;;0.50;;
71973;SDS011;59840;52.122;5.404;2023-04-25T04:59:59;4.00;;;0.50;;
71973;SDS011;59840;52.122;5.404;2023-04-25T05:02:25;5.27;;;0.70;;
71973;SDS011;59840;52.122;5.404;2023-04-25T05:04:52;4.90;;;0.68;;
71973;SDS011;59840;52.122;5.404;2023-04-25T05:07:19;5.72;;;0.57;;
71973;SDS011;59840;52.122;5.404;2023-04-25T05:09:45;4.55;;;0.57;;
71973;SDS011;59840;52.122;5.404;2023-04-25T05:12:12;8.60;;;0.77;;
71973;SDS011;59840;52.122;5.404;2023-04-25T05:14:39;4.17;;;0.60;;
71973;SDS011;59840;52.122;5.404;2023-04-25T05:17:05;11.82;;;0.82;;
71973;SDS011;59840;52.122;5.404;2023-04-25T05:19:34;4.55;;;0.55;;
71973;SDS011;59840;52.122;5.404;2023-04-25T05:22:01;9.05;;;0.98;;
71973;SDS011;59840;52.122;5.404;2023-04-25T05:24:28;3.92;;;0.73;;
71973;SDS011;59840;52.122;5.404;2023-04-25T05:26:56;3.40;;;0.50;;
71973;SDS011;59840;52.122;5.404;2023-04-25T05:29:23;5.65;;;0.70;;
71973;SDS011;59840;52.122;5.404;2023-04-25T05:31:50;3.90;;;0.75;;
71973;SDS011;59840;52.122;5.404;2023-04-25T05:34:17;3.95;;;0.40;;
71973;SDS011;59840;52.122;5.404;2023-04-25T05:36:43;4.75;;;0.52;;
71973;SDS011;59840;52.122;5.404;2023-04-25T05:39:10;5.47;;;0.63;;
71973;SDS011;59840;52.122;5.404;2023-04-25T05:41:37;5.38;;;1.15;;
71973;SDS011;59840;52.122;5.404;2023-04-25T05:44:03;3.72;;;0.77;;
71973;SDS011;59840;52.122;5.404;2023-04-25T05:46:30;3.35;;;0.70;;
71973;SDS011;59840;52.122;5.404;2023-04-25T05:48:57;3.97;;;0.40;;
71973;SDS011;59840;52.122;5.404;2023-04-25T05:51:24;6.00;;;0.60;;
71973;SDS011;59840;52.122;5.404;2023-04-25T05:53:50;3.08;;;0.90;;
71973;SDS011;59840;52.122;5.404;2023-04-25T05:56:17;5.57;;;0.57;;
71973;SDS011;59840;52.122;5.404;2023-04-25T05:58:44;4.05;;;0.47;;
71973;SDS011;59840;52.122;5.404;2023-04-25T06:01:11;3.35;;;0.60;;
71973;SDS011;59840;52.122;5.404;2023-04-25T06:03:38;5.23;;;0.60;;
71973;SDS011;59840;52.122;5.404;2023-04-25T06:06:05;6.75;;;0.95;;
71973;SDS011;59840;52.122;5.404;2023-04-25T06:08:32;2.75;;;0.55;;
71973;SDS011;59840;52.122;5.404;2023-04-25T06:10:59;7.30;;;0.70;;
71973;SDS011;59840;52.122;5.404;2023-04-25T06:13:25;6.30;;;0.60;;
71973;SDS011;59840;52.122;5.404;2023-04-25T06:15:52;3.20;;;0.70;;
71973;SDS011;59840;52.122;5.404;2023-04-25T06:18:18;5.70;;;0.50;;
71973;SDS011;59840;52.122;5.404;2023-04-25T06:20:45;4.80;;;0.50;;
71973;SDS011;59840;52.122;5.404;2023-04-25T06:23:12;7.15;;;0.70;;
71973;SDS011;59840;52.122;5.404;2023-04-25T06:25:39;2.00;;;0.32;;
71973;SDS011;59840;52.122;5.404;2023-04-25T06:28:05;3.83;;;0.63;;
71973;SDS011;59840;52.122;5.404;2023-04-25T06:30:32;4.40;;;0.50;;
71973;SDS011;59840;52.122;5.404;2023-04-25T06:32:58;4.65;;;0.40;;
71973;SDS011;59840;52.122;5.404;2023-04-25T06:35:25;3.05;;;0.68;;
71973;SDS011;59840;52.122;5.404;2023-04-25T06:37:51;2.97;;;0.40;;
71973;SDS011;59840;52.122;5.404;2023-04-25T06:40:18;4.20;;;0.70;;
71973;SDS011;59840;52.122;5.404;2023-04-25T06:42:45;2.50;;;0.70;;
71973;SDS011;59840;52.122;5.404;2023-04-25T06:45:11;5.38;;;0.52;;
71973;SDS011;59840;52.122;5.404;2023-04-25T06:47:38;3.08;;;0.40;;
71973;SDS011;59840;52.122;5.404;2023-04-25T06:50:05;3.47;;;0.47;;
71973;SDS011;59840;52.122;5.404;2023-04-25T06:52:32;5.77;;;0.50;;
71973;SDS011;59840;52.122;5.404;2023-04-25T06:55:01;5.35;;;0.45;;
71973;SDS011;59840;52.122;5.404;2023-04-25T06:57:28;3.50;;;0.50;;
71973;SDS011;59840;52.122;5.404;2023-04-25T06:59:55;7.03;;;0.60;;
71973;SDS011;59840;52.122;5.404;2023-04-25T07:02:22;2.55;;;0.55;;
71973;SDS011;59840;52.122;5.404;2023-04-25T07:04:49;2.37;;;0.70;;
71973;SDS011;59840;52.122;5.404;2023-04-25T07:07:16;3.90;;;0.40;;
71973;SDS011;59840;52.122;5.404;2023-04-25T07:09:43;3.75;;;0.50;;
71973;SDS011;59840;52.122;5.404;2023-04-25T07:12:09;3.22;;;0.40;;
71973;SDS011;59840;52.122;5.404;2023-04-25T07:14:36;4.95;;;0.70;;
71973;SDS011;59840;52.122;5.404;2023-04-25T07:17:02;5.47;;;0.67;;
71973;SDS011;59840;52.122;5.404;2023-04-25T07:19:29;1.65;;;0.30;;
71973;SDS011;59840;52.122;5.404;2023-04-25T07:21:56;2.35;;;0.43;;
71973;SDS011;59840;52.122;5.404;2023-04-25T07:24:22;4.70;;;0.45;;
71973;SDS011;59840;52.122;5.404;2023-04-25T07:26:49;1.88;;;0.40;;
71973;SDS011;59840;52.122;5.404;2023-04-25T07:29:16;4.23;;;0.50;;
71973;SDS011;59840;52.122;5.404;2023-04-25T07:31:42;4.07;;;0.40;;
71973;SDS011;59840;52.122;5.404;2023-04-25T07:34:09;7.20;;;0.32;;
71973;SDS011;59840;52.122;5.404;2023-04-25T07:36:36;4.93;;;0.40;;
71973;SDS011;59840;52.122;5.404;2023-04-25T07:39:03;4.82;;;0.55;;
71973;SDS011;59840;52.122;5.404;2023-04-25T07:41:29;2.67;;;0.30;;
71973;SDS011;59840;52.122;5.404;2023-04-25T07:43:56;5.50;;;0.75;;
71973;SDS011;59840;52.122;5.404;2023-04-25T07:46:22;5.40;;;0.45;;
71973;SDS011;59840;52.122;5.404;2023-04-25T07:48:50;2.20;;;0.38;;
71973;SDS011;59840;52.122;5.404;2023-04-25T07:51:17;3.08;;;0.43;;
71973;SDS011;59840;52.122;5.404;2023-04-25T07:53:46;4.87;;;0.43;;
71973;SDS011;59840;52.122;5.404;2023-04-25T07:56:15;2.75;;;0.35;;
71973;SDS011;59840;52.122;5.404;2023-04-25T07:58:42;4.72;;;0.38;;
71973;SDS011;59840;52.122;5.404;2023-04-25T08:01:08;3.55;;;0.35;;
71973;SDS011;59840;52.122;5.404;2023-04-25T08:03:35;1.40;;;0.35;;
71973;SDS011;59840;52.122;5.404;2023-04-25T08:06:02;5.10;;;0.40;;
71973;SDS011;59840;52.122;5.404;2023-04-25T08:08:33;5.28;;;0.55;;
71973;SDS011;59840;52.122;5.404;2023-04-25T08:11:00;5.10;;;1.15;;
71973;SDS011;59840;52.122;5.404;2023-04-25T08:13:26;5.85;;;0.45;;
71973;SDS011;59840;52.122;5.404;2023-04-25T08:15:53;3.72;;;0.22;;
71973;SDS011;59840;52.122;5.404;2023-04-25T08:18:19;9.10;;;0.37;;
71973;SDS011;59840;52.122;5.404;2023-04-25T08:20:46;4.57;;;0.52;;
71973;SDS011;59840;52.122;5.404;2023-04-25T08:23:13;3.67;;;0.50;;
71973;SDS011;59840;52.122;5.404;2023-04-25T08:25:40;2.65;;;0.30;;
71973;SDS011;59840;52.122;5.404;2023-04-25T08:28:07;1.50;;;0.20;;
71973;SDS011;59840;52.122;5.404;2023-04-25T08:30:33;1.23;;;0.20;;
71973;SDS011;59840;52.122;5.404;2023-04-25T08:33:00;2.60;;;0.20;;
71973;SDS011;59840;52.122;5.404;2023-04-25T08:35:26;0.35;;;0.20;;
71973;SDS011;59840;52.122;5.404;2023-04-25T08:37:53;2.63;;;0.20;;
71973;SDS011;59840;52.122;5.404;2023-04-25T08:40:19;3.28;;;0.47;;
71973;SDS011;59840;52.122;5.404;2023-04-25T08:42:52;3.67;;;0.43;;
71973;SDS011;59840;52.122;5.404;2023-04-25T08:45:20;2.97;;;0.20;;
71973;SDS011;59840;52.122;5.404;2023-04-25T08:47:46;0.98;;;0.20;;
71973;SDS011;59840;52.122;5.404;2023-04-25T08:50:15;1.40;;;0.17;;
71973;SDS011;59840;52.122;5.404;2023-04-25T08:52:43;4.28;;;0.40;;
71973;SDS011;59840;52.122;5.404;2023-04-25T08:55:12;3.93;;;0.40;;
71973;SDS011;59840;52.122;5.404;2023-04-25T08:57:40;4.00;;;0.40;;
71973;SDS011;59840;52.122;5.404;2023-04-25T09:00:11;3.03;;;0.30;;
71973;SDS011;59840;52.122;5.404;2023-04-25T09:02:39;6.95;;;0.30;;
71973;SDS011;59840;52.122;5.404;2023-04-25T09:05:07;2.97;;;0.30;;
71973;SDS011;59840;52.122;5.404;2023-04-25T09:07:36;2.43;;;0.40;;
71973;SDS011;59840;52.122;5.404;2023-04-25T09:10:03;4.80;;;0.20;;
71973;SDS011;59840;52.122;5.404;2023-04-25T09:12:29;3.85;;;0.45;;
71973;SDS011;59840;52.122;5.404;2023-04-25T09:15:06;2.33;;;0.20;;
71973;SDS011;59840;52.122;5.404;2023-04-25T09:17:35;2.78;;;0.55;;
71973;SDS011;59840;52.122;5.404;2023-04-25T09:20:10;4.27;;;0.30;;
71973;SDS011;59840;52.122;5.404;2023-04-25T09:22:38;2.25;;;0.40;;
71973;SDS011;59840;52.122;5.404;2023-04-25T09:25:09;2.95;;;0.25;;
71973;SDS011;59840;52.122;5.404;2023-04-25T09:27:37;2.58;;;0.30;;
71973;SDS011;59840;52.122;5.404;2023-04-25T09:30:16;3.70;;;0.65;;
71973;SDS011;59840;52.122;5.404;2023-04-25T09:32:45;4.03;;;0.43;;
71973;SDS011;59840;52.122;5.404;2023-04-25T09:35:22;3.35;;;0.30;;
71973;SDS011;59840;52.122;5.404;2023-04-25T09:37:51;4.45;;;0.60;;
71973;SDS011;59840;52.122;5.404;2023-04-25T09:40:18;1.92;;;0.30;;
71973;SDS011;59840;52.122;5.404;2023-04-25T09:42:44;5.63;;;1.02;;
71973;SDS011;59840;52.122;5.404;2023-04-25T09:45:12;4.00;;;0.47;;
71973;SDS011;59840;52.122;5.404;2023-04-25T09:47:39;2.20;;;0.40;;
71973;SDS011;59840;52.122;5.404;2023-04-25T09:50:13;0.95;;;0.20;;
71973;SDS011;59840;52.122;5.404;2023-04-25T09:52:41;2.33;;;0.20;;
71973;SDS011;59840;52.122;5.404;2023-04-25T09:55:08;1.58;;;0.50;;
71973;SDS011;59840;52.122;5.404;2023-04-25T09:57:34;5.00;;;0.40;;
71973;SDS011;59840;52.122;5.404;2023-04-25T10:00:02;3.88;;;0.32;;
71973;SDS011;59840;52.122;5.404;2023-04-25T10:02:31;2.08;;;0.38;;
71973;SDS011;59840;52.122;5.404;2023-04-25T10:04:59;2.28;;;0.73;;
71973;SDS011;59840;52.122;5.404;2023-04-25T10:07:30;2.15;;;0.20;;
71973;SDS011;59840;52.122;5.404;2023-04-25T10:10:01;2.27;;;0.20;;
71973;SDS011;59840;52.122;5.404;2023-04-25T10:12:30;3.00;;;0.40;;
71973;SDS011;59840;52.122;5.404;2023-04-25T10:14:59;2.53;;;0.25;;
71973;SDS011;59840;52.122;5.404;2023-04-25T10:17:27;2.78;;;0.30;;
71973;SDS011;59840;52.122;5.404;2023-04-25T10:19:56;1.35;;;0.20;;
71973;SDS011;59840;52.122;5.404;2023-04-25T10:22:34;3.13;;;0.27;;
71973;SDS011;59840;52.122;5.404;2023-04-25T10:25:03;0.57;;;0.10;;
71973;SDS011;59840;52.122;5.404;2023-04-25T10:27:32;4.63;;;0.40;;
71973;SDS011;59840;52.122;5.404;2023-04-25T10:30:00;2.70;;;0.13;;
71973;SDS011;59840;52.122;5.404;2023-04-25T10:32:35;1.33;;;0.20;;
71973;SDS011;59840;52.122;5.404;2023-04-25T10:35:12;2.30;;;0.20;;
71973;SDS011;59840;52.122;5.404;2023-04-25T10:37:48;1.85;;;0.25;;
71973;SDS011;59840;52.122;5.404;2023-04-25T10:40:46;2.05;;;0.20;;
71973;SDS011;59840;52.122;5.404;2023-04-25T10:43:35;2.40;;;0.40;;
71973;SDS011;59840;52.122;5.404;2023-04-25T10:48:54;1.43;;;0.20;;
71973;SDS011;59840;52.122;5.404;2023-04-25T10:51:23;3.17;;;0.40;;
71973;SDS011;59840;52.122;5.404;2023-04-25T10:54:01;3.83;;;0.30;;
71973;SDS011;59840;52.122;5.404;2023-04-25T10:56:39;3.15;;;0.47;;
71973;SDS011;59840;52.122;5.404;2023-04-25T10:59:11;2.80;;;0.57;;
71973;SDS011;59840;52.122;5.404;2023-04-25T11:01:45;2.33;;;0.20;;
71973;SDS011;59840;52.122;5.404;2023-04-25T11:09:38;2.72;;;0.30;;
71973;SDS011;59840;52.122;5.404;2023-04-25T11:12:07;1.95;;;0.30;;
71973;SDS011;59840;52.122;5.404;2023-04-25T11:14:35;3.20;;;0.37;;
71973;SDS011;59840;52.122;5.404;2023-04-25T11:17:02;3.88;;;0.47;;
71973;SDS011;59840;52.122;5.404;2023-04-25T11:19:29;3.75;;;0.50;;
71973;SDS011;59840;52.122;5.404;2023-04-25T11:21:56;1.58;;;0.25;;
71973;SDS011;59840;52.122;5.404;2023-04-25T11:24:27;1.20;;;0.28;;
71973;SDS011;59840;52.122;5.404;2023-04-25T11:26:58;3.33;;;0.20;;
71973;SDS011;59840;52.122;5.404;2023-04-25T11:29:29;1.98;;;0.40;;
71973;SDS011;59840;52.122;5.404;2023-04-25T11:31:56;2.20;;;0.30;;
71973;SDS011;59840;52.122;5.404;2023-04-25T11:34:27;1.95;;;0.30;;
71973;SDS011;59840;52.122;5.404;2023-04-25T11:36:57;4.75;;;0.60;;
71973;SDS011;59840;52.122;5.404;2023-04-25T11:39:24;4.67;;;0.60;;
71973;SDS011;59840;52.122;5.404;2023-04-25T11:41:51;2.78;;;0.28;;
71973;SDS011;59840;52.122;5.404;2023-04-25T11:44:18;5.22;;;0.40;;
71973;SDS011;59840;52.122;5.404;2023-04-25T11:46:46;4.60;;;0.50;;
71973;SDS011;59840;52.122;5.404;2023-04-25T11:49:13;4.78;;;0.50;;
71973;SDS011;59840;52.122;5.404;2023-04-25T11:51:45;4.63;;;0.30;;
71973;SDS011;59840;52.122;5.404;2023-04-25T11:54:13;1.17;;;0.20;;
71973;SDS011;59840;52.122;5.404;2023-04-25T11:56:44;4.35;;;0.93;;
71973;SDS011;59840;52.122;5.404;2023-04-25T11:59:11;6.18;;;0.32;;
71973;SDS011;59840;52.122;5.404;2023-04-25T12:01:40;7.32;;;0.50;;
71973;SDS011;59840;52.122;5.404;2023-04-25T12:04:20;2.93;;;0.40;;
71973;SDS011;59840;52.122;5.404;2023-04-25T12:06:49;2.40;;;0.30;;
71973;SDS011;59840;52.122;5.404;2023-04-25T12:09:27;2.47;;;0.30;;
71973;SDS011;59840;52.122;5.404;2023-04-25T12:11:57;2.05;;;0.20;;
71973;SDS011;59840;52.122;5.404;2023-04-25T12:14:25;4.55;;;0.47;;
71973;SDS011;59840;52.122;5.404;2023-04-25T12:17:00;2.10;;;0.40;;
71973;SDS011;59840;52.122;5.404;2023-04-25T12:19:34;2.75;;;0.68;;
71973;SDS011;59840;52.122;5.404;2023-04-25T12:22:02;3.95;;;0.77;;
71973;SDS011;59840;52.122;5.404;2023-04-25T12:24:33;2.25;;;0.30;;
71973;SDS011;59840;52.122;5.404;2023-04-25T12:27:05;2.72;;;0.47;;
71973;SDS011;59840;52.122;5.404;2023-04-25T12:29:34;0.77;;;0.20;;
71973;SDS011;59840;52.122;5.404;2023-04-25T12:32:14;2.78;;;0.30;;
71973;SDS011;59840;52.122;5.404;2023-04-25T12:34:41;5.05;;;0.45;;
71973;SDS011;59840;52.122;5.404;2023-04-25T12:37:08;4.85;;;0.30;;
71973;SDS011;59840;52.122;5.404;2023-04-25T12:39:35;4.03;;;0.20;;
71973;SDS011;59840;52.122;5.404;2023-04-25T12:42:01;0.97;;;0.23;;
71973;SDS011;59840;52.122;5.404;2023-04-25T12:44:30;1.40;;;0.32;;
71973;SDS011;59840;52.122;5.404;2023-04-25T12:46:57;2.13;;;0.20;;
71973;SDS011;59840;52.122;5.404;2023-04-25T12:49:24;2.85;;;0.60;;
71973;SDS011;59840;52.122;5.404;2023-04-25T12:51:51;2.30;;;0.40;;
71973;SDS011;59840;52.122;5.404;2023-04-25T12:54:18;2.33;;;0.33;;
71973;SDS011;59840;52.122;5.404;2023-04-25T12:56:44;1.13;;;0.30;;
71973;SDS011;59840;52.122;5.404;2023-04-25T12:59:12;2.85;;;0.30;;
71973;SDS011;59840;52.122;5.404;2023-04-25T13:01:38;2.88;;;0.32;;
71973;SDS011;59840;52.122;5.404;2023-04-25T13:04:05;2.35;;;0.30;;
71973;SDS011;59840;52.122;5.404;2023-04-25T13:06:32;1.50;;;0.20;;
71973;SDS011;59840;52.122;5.404;2023-04-25T13:08:58;1.55;;;0.20;;
71973;SDS011;59840;52.122;5.404;2023-04-25T13:11:25;2.53;;;0.40;;
71973;SDS011;59840;52.122;5.404;2023-04-25T13:13:52;3.75;;;0.30;;
71973;SDS011;59840;52.122;5.404;2023-04-25T13:16:19;1.85;;;0.30;;
71973;SDS011;59840;52.122;5.404;2023-04-25T13:18:47;3.27;;;0.77;;
71973;SDS011;59840;52.122;5.404;2023-04-25T13:21:14;2.50;;;0.50;;
71973;SDS011;59840;52.122;5.404;2023-04-25T13:23:40;3.40;;;0.40;;
71973;SDS011;59840;52.122;5.404;2023-04-25T13:26:08;2.65;;;0.45;;
71973;SDS011;59840;52.122;5.404;2023-04-25T13:28:35;2.35;;;0.20;;
71973;SDS011;59840;52.122;5.404;2023-04-25T13:31:02;2.77;;;0.50;;
71973;SDS011;59840;52.122;5.404;2023-04-25T13:33:28;1.58;;;0.28;;
71973;SDS011;59840;52.122;5.404;2023-04-25T13:35:55;2.40;;;0.52;;
71973;SDS011;59840;52.122;5.404;2023-04-25T13:38:23;1.65;;;0.13;;
71973;SDS011;59840;52.122;5.404;2023-04-25T13:40:51;2.67;;;0.30;;
71973;SDS011;59840;52.122;5.404;2023-04-25T13:43:19;1.73;;;0.20;;
71973;SDS011;59840;52.122;5.404;2023-04-25T13:45:51;2.60;;;0.30;;
71973;SDS011;59840;52.122;5.404;2023-04-25T13:48:18;0.93;;;0.20;;
71973;SDS011;59840;52.122;5.404;2023-04-25T13:50:46;3.30;;;0.20;;
71973;SDS011;59840;52.122;5.404;2023-04-25T13:53:12;3.65;;;0.20;;
71973;SDS011;59840;52.122;5.404;2023-04-25T13:55:39;2.57;;;0.30;;
71973;SDS011;59840;52.122;5.404;2023-04-25T13:58:05;3.58;;;0.68;;
71973;SDS011;59840;52.122;5.404;2023-04-25T14:00:37;1.85;;;0.38;;
71973;SDS011;59840;52.122;5.404;2023-04-25T14:03:05;1.40;;;0.28;;
71973;SDS011;59840;52.122;5.404;2023-04-25T14:05:34;4.63;;;0.30;;
71973;SDS011;59840;52.122;5.404;2023-04-25T14:08:06;1.83;;;0.30;;
71973;SDS011;59840;52.122;5.404;2023-04-25T14:10:34;1.50;;;0.35;;
71973;SDS011;59840;52.122;5.404;2023-04-25T14:13:01;2.35;;;0.40;;
71973;SDS011;59840;52.122;5.404;2023-04-25T14:15:32;5.43;;;1.50;;
71973;SDS011;59840;52.122;5.404;2023-04-25T14:17:59;1.95;;;0.57;;
71973;SDS011;59840;52.122;5.404;2023-04-25T14:20:27;5.07;;;0.40;;
71973;SDS011;59840;52.122;5.404;2023-04-25T14:22:54;3.42;;;0.50;;
71973;SDS011;59840;52.122;5.404;2023-04-25T14:25:22;2.15;;;0.50;;
71973;SDS011;59840;52.122;5.404;2023-04-25T14:27:49;1.55;;;0.20;;
71973;SDS011;59840;52.122;5.404;2023-04-25T14:30:16;3.10;;;0.47;;
71973;SDS011;59840;52.122;5.404;2023-04-25T14:32:44;1.60;;;0.30;;
71973;SDS011;59840;52.122;5.404;2023-04-25T14:35:12;0.98;;;0.20;;
71973;SDS011;59840;52.122;5.404;2023-04-25T14:37:38;4.10;;;0.50;;
71973;SDS011;59840;52.122;5.404;2023-04-25T14:40:05;1.40;;;0.30;;
71973;SDS011;59840;52.122;5.404;2023-04-25T14:42:36;2.40;;;0.68;;
71973;SDS011;59840;52.122;5.404;2023-04-25T14:45:04;1.97;;;0.70;;
71973;SDS011;59840;52.122;5.404;2023-04-25T14:47:31;3.42;;;0.30;;
71973;SDS011;59840;52.122;5.404;2023-04-25T14:49:58;2.92;;;0.45;;
71973;SDS011;59840;52.122;5.404;2023-04-25T14:52:24;2.45;;;0.30;;
71973;SDS011;59840;52.122;5.404;2023-04-25T14:54:51;3.58;;;0.43;;
71973;SDS011;59840;52.122;5.404;2023-04-25T14:57:18;2.27;;;0.20;;
71973;SDS011;59840;52.122;5.404;2023-04-25T14:59:45;4.93;;;0.50;;